createdAt,value
2023-05-19T00:00:58.454Z,83.54
2023-05-19T00:01:58.431Z,83.13
2023-05-19T00:02:58.496Z,83.13
2023-05-19T00:03:58.405Z,83.03
2023-05-19T00:04:58.399Z,82.89
2023-05-19T00:05:58.435Z,83.09
2023-05-19T00:06:58.374Z,82.89
2023-05-19T00:07:58.364Z,82.98
2023-05-19T00:08:58.356Z,82.89
2023-05-19T00:09:58.331Z,82.78
2023-05-19T00:10:58.381Z,82.37
2023-05-19T00:11:58.322Z,82.68
2023-05-19T00:12:58.318Z,82.78
2023-05-19T00:13:58.313Z,82.57
2023-05-19T00:14:58.276Z,82.47
2023-05-19T00:15:58.293Z,82.37
2023-05-19T00:16:58.270Z,82.37
2023-05-19T00:17:58.381Z,82.37
2023-05-19T00:18:58.307Z,83.19
2023-05-19T00:19:58.226Z,82.06
2023-05-19T00:20:58.221Z,82.16
2023-05-19T00:21:58.209Z,82.37
2023-05-19T00:22:58.202Z,82.06
2023-05-19T00:23:58.193Z,81.96
2023-05-19T00:24:58.170Z,81.75
2023-05-19T00:25:58.161Z,81.85
2023-05-19T00:26:58.154Z,81.85
2023-05-19T00:27:58.157Z,81.75
2023-05-19T00:28:58.138Z,81.65
2023-05-19T00:29:58.116Z,81.65
2023-05-19T00:30:58.110Z,82.16
2023-05-19T00:31:58.117Z,81.81
2023-05-19T00:32:58.114Z,81.44
2023-05-19T00:33:58.063Z,81.44
2023-05-19T00:34:58.100Z,81.75
2023-05-19T00:35:58.057Z,81.85
2023-05-19T00:36:58.049Z,81.65
2023-05-19T00:37:58.064Z,81.85
2023-05-19T00:38:58.033Z,82.37
2023-05-19T00:39:58.013Z,82.26
2023-05-19T00:40:58.012Z,82.37
2023-05-19T00:41:57.998Z,82.57
2023-05-19T00:42:57.974Z,82.20
2023-05-19T00:43:57.976Z,83.03
2023-05-19T00:44:57.953Z,83.03
2023-05-19T00:45:57.955Z,83.75
2023-05-19T00:46:58.040Z,83.48
2023-05-19T00:47:58.038Z,83.48
2023-05-19T00:48:57.909Z,83.99
2023-05-19T00:49:57.914Z,84.30
2023-05-19T00:50:57.885Z,83.78
2023-05-19T00:51:57.893Z,83.99
2023-05-19T00:52:57.871Z,83.58
2023-05-19T00:53:57.873Z,84.03
2023-05-19T00:54:57.843Z,84.75
2023-05-19T00:55:57.858Z,84.96
2023-05-19T00:56:57.823Z,85.17
2023-05-19T00:57:57.816Z,85.41
2023-05-19T00:58:57.818Z,85.83
2023-05-19T00:59:57.802Z,86.03
2023-05-19T01:00:57.808Z,85.89
2023-05-19T01:01:57.769Z,85.68
2023-05-19T01:02:57.840Z,85.47
2023-05-19T01:03:57.825Z,84.81
2023-05-19T01:04:57.741Z,85.02
2023-05-19T01:05:57.738Z,84.81
2023-05-19T01:06:57.722Z,84.86
2023-05-19T01:07:57.728Z,84.96
2023-05-19T01:08:57.708Z,84.44
2023-05-19T01:09:57.710Z,84.86
2023-05-19T01:10:57.687Z,85.37
2023-05-19T01:11:57.677Z,85.37
2023-05-19T01:12:57.654Z,84.75
2023-05-19T01:13:57.653Z,85.06
2023-05-19T01:14:57.636Z,85.17
2023-05-19T01:15:57.670Z,85.27
2023-05-19T01:16:57.652Z,85.37
2023-05-19T01:17:57.637Z,85.47
2023-05-19T01:18:57.643Z,85.89
2023-05-19T01:19:57.611Z,86.13
2023-05-19T01:20:57.559Z,85.72
2023-05-19T01:21:57.559Z,85.27
2023-05-19T01:22:57.587Z,85.37
2023-05-19T01:23:57.535Z,85.68
2023-05-19T01:24:57.532Z,85.47
2023-05-19T01:25:57.527Z,85.47
2023-05-19T01:26:57.508Z,85.17
2023-05-19T01:27:57.496Z,84.96
2023-05-19T01:28:57.486Z,84.75
2023-05-19T01:29:57.481Z,84.72
2023-05-19T01:30:57.450Z,84.65
2023-05-19T01:31:57.498Z,84.55
2023-05-19T01:32:57.465Z,84.65
2023-05-19T01:33:57.424Z,84.20
2023-05-19T01:34:57.416Z,83.89
2023-05-19T01:35:57.421Z,83.68
2023-05-19T01:36:57.387Z,83.68
2023-05-19T01:37:57.411Z,83.78
2023-05-19T01:38:57.371Z,83.89
2023-05-19T01:39:57.362Z,84.13
2023-05-19T01:40:57.353Z,84.13
2023-05-19T01:41:57.350Z,83.72
2023-05-19T01:42:57.880Z,84.34
2023-05-19T01:43:57.320Z,83.93
2023-05-19T01:44:57.311Z,84.17
2023-05-19T01:45:57.383Z,84.38
2023-05-19T01:46:57.291Z,84.07
2023-05-19T01:47:57.337Z,85.00
2023-05-19T01:48:57.265Z,85.35
2023-05-19T01:49:57.257Z,85.45
2023-05-19T01:50:57.282Z,85.45
2023-05-19T01:51:57.248Z,85.66
2023-05-19T01:52:57.224Z,85.21
2023-05-19T01:53:57.230Z,84.59
2023-05-19T01:54:57.205Z,84.28
2023-05-19T01:55:57.209Z,85.10
2023-05-19T01:56:57.190Z,85.00
2023-05-19T01:57:57.182Z,84.94
2023-05-19T01:58:57.156Z,84.52
2023-05-19T01:59:57.156Z,85.04
2023-05-19T02:00:57.187Z,85.04
2023-05-19T02:01:57.132Z,85.66
2023-05-19T02:02:57.183Z,85.86
2023-05-19T02:03:57.146Z,85.66
2023-05-19T02:04:57.109Z,85.35
2023-05-19T02:05:57.128Z,84.83
2023-05-19T02:06:57.067Z,85.04
2023-05-19T02:07:57.063Z,85.14
2023-05-19T02:08:57.051Z,84.83
2023-05-19T02:09:57.074Z,84.83
2023-05-19T02:10:57.048Z,84.42
2023-05-19T02:11:57.027Z,83.80
2023-05-19T02:12:57.006Z,84.11
2023-05-19T02:13:57.018Z,84.38
2023-05-19T02:14:57.002Z,84.07
2023-05-19T02:15:57.016Z,84.17
2023-05-19T02:16:56.984Z,83.55
2023-05-19T02:17:57.010Z,83.39
2023-05-19T02:18:56.974Z,83.49
2023-05-19T02:19:56.938Z,83.39
2023-05-19T02:20:56.921Z,83.28
2023-05-19T02:21:56.901Z,83.90
2023-05-19T02:22:56.896Z,84.11
2023-05-19T02:23:56.894Z,83.70
2023-05-19T02:24:56.868Z,83.80
2023-05-19T02:25:56.891Z,83.59
2023-05-19T02:26:56.849Z,83.59
2023-05-19T02:27:56.838Z,83.28
2023-05-19T02:28:56.836Z,83.28
2023-05-19T02:29:56.822Z,83.90
2023-05-19T02:30:56.801Z,84.11
2023-05-19T02:31:56.870Z,83.73
2023-05-19T02:32:56.825Z,84.56
2023-05-19T02:33:56.769Z,85.08
2023-05-19T02:34:56.762Z,85.49
2023-05-19T02:35:56.771Z,85.49
2023-05-19T02:36:56.770Z,84.05
2023-05-19T02:37:56.743Z,84.50
2023-05-19T02:38:56.730Z,84.19
2023-05-19T02:39:56.736Z,86.19
2023-05-19T02:40:56.704Z,86.81
2023-05-19T02:41:56.702Z,85.78
2023-05-19T02:42:56.672Z,85.36
2023-05-19T02:43:56.678Z,85.40
2023-05-19T02:44:56.664Z,85.92
2023-05-19T02:45:56.696Z,87.20
2023-05-19T02:46:56.640Z,88.34
2023-05-19T02:47:56.658Z,89.38
2023-05-19T02:48:56.607Z,90.72
2023-05-19T02:49:56.619Z,90.93
2023-05-19T02:50:56.590Z,90.47
2023-05-19T02:51:56.579Z,89.86
2023-05-19T02:52:56.567Z,89.19
2023-05-19T02:53:56.569Z,89.09
2023-05-19T02:54:56.551Z,89.19
2023-05-19T02:55:56.555Z,88.74
2023-05-19T02:56:56.533Z,88.12
2023-05-19T02:57:56.520Z,86.88
2023-05-19T02:58:56.511Z,87.39
2023-05-19T02:59:56.505Z,87.39
2023-05-19T03:00:56.474Z,87.18
2023-05-19T03:01:56.524Z,87.60
2023-05-19T03:02:56.468Z,86.67
2023-05-19T03:03:56.442Z,87.18
2023-05-19T03:04:56.454Z,87.49
2023-05-19T03:05:56.447Z,86.67
2023-05-19T03:06:56.421Z,87.60
2023-05-19T03:07:56.414Z,87.64
2023-05-19T03:08:56.359Z,87.74
2023-05-19T03:09:56.347Z,88.16
2023-05-19T03:10:56.368Z,88.06
2023-05-19T03:11:56.340Z,88.36
2023-05-19T03:12:56.307Z,88.74
2023-05-19T03:13:56.294Z,87.81
2023-05-19T03:14:56.281Z,87.60
2023-05-19T03:15:56.305Z,87.39
2023-05-19T03:16:56.575Z,87.60
2023-05-19T03:17:56.360Z,87.29
2023-05-19T03:18:56.265Z,87.91
2023-05-19T03:19:56.228Z,87.70
2023-05-19T03:20:56.223Z,87.04
2023-05-19T03:21:56.211Z,86.67
2023-05-19T03:22:56.208Z,86.36
2023-05-19T03:23:56.196Z,86.42
2023-05-19T03:24:56.187Z,86.32
2023-05-19T03:25:56.162Z,85.32
2023-05-19T03:26:56.163Z,86.15
2023-05-19T03:27:56.152Z,87.08
2023-05-19T03:28:56.148Z,87.29
2023-05-19T03:29:56.135Z,86.77
2023-05-19T03:30:56.116Z,87.39
2023-05-19T03:31:56.118Z,88.12
2023-05-19T03:32:56.151Z,87.85
2023-05-19T03:33:56.089Z,88.32
2023-05-19T03:34:56.073Z,87.91
2023-05-19T03:35:56.069Z,88.12
2023-05-19T03:36:56.061Z,88.01
2023-05-19T03:37:56.052Z,88.12
2023-05-19T03:38:56.027Z,87.70
2023-05-19T03:39:56.038Z,87.29
2023-05-19T03:40:56.061Z,86.98
2023-05-19T03:41:56.001Z,87.08
2023-05-19T03:42:55.991Z,87.39
2023-05-19T03:43:55.991Z,87.49
2023-05-19T03:44:55.989Z,87.49
2023-05-19T03:45:55.974Z,87.39
2023-05-19T03:46:55.957Z,87.60
2023-05-19T03:47:56.003Z,87.81
2023-05-19T03:48:55.927Z,87.49
2023-05-19T03:49:55.941Z,87.49
2023-05-19T03:50:55.916Z,87.25
2023-05-19T03:51:55.909Z,86.94
2023-05-19T03:52:55.896Z,87.15
2023-05-19T03:53:55.881Z,87.04
2023-05-19T03:54:55.854Z,86.83
2023-05-19T03:55:55.858Z,86.63
2023-05-19T03:56:55.846Z,86.94
2023-05-19T03:57:55.832Z,87.35
2023-05-19T03:58:55.824Z,87.25
2023-05-19T03:59:55.817Z,87.25
2023-05-19T04:00:55.788Z,87.35
2023-05-19T04:01:55.823Z,87.00
2023-05-19T04:02:55.869Z,87.25
2023-05-19T04:03:55.798Z,87.35
2023-05-19T04:04:55.831Z,87.25
2023-05-19T04:05:55.749Z,87.15
2023-05-19T04:06:55.730Z,87.15
2023-05-19T04:07:55.730Z,87.25
2023-05-19T04:08:55.707Z,87.97
2023-05-19T04:09:55.705Z,87.46
2023-05-19T04:10:55.713Z,87.56
2023-05-19T04:11:55.688Z,87.35
2023-05-19T04:12:55.703Z,87.25
2023-05-19T04:13:55.674Z,87.66
2023-05-19T04:14:55.652Z,87.66
2023-05-19T04:15:55.680Z,87.66
2023-05-19T04:16:55.639Z,87.76
2023-05-19T04:17:55.702Z,87.56
2023-05-19T04:18:55.653Z,87.76
2023-05-19T04:19:55.645Z,87.93
2023-05-19T04:20:55.581Z,87.83
2023-05-19T04:21:55.583Z,87.62
2023-05-19T04:22:55.569Z,88.86
2023-05-19T04:23:55.559Z,88.86
2023-05-19T04:24:55.542Z,89.28
2023-05-19T04:25:55.546Z,89.38
2023-05-19T04:26:55.528Z,88.86
2023-05-19T04:27:55.508Z,88.45
2023-05-19T04:28:55.489Z,89.48
2023-05-19T04:29:55.491Z,89.28
2023-05-19T04:30:55.490Z,89.38
2023-05-19T04:31:55.469Z,89.48
2023-05-19T04:32:55.480Z,88.55
2023-05-19T04:33:55.471Z,89.13
2023-05-19T04:34:55.449Z,89.34
2023-05-19T04:35:55.432Z,89.03
2023-05-19T04:36:55.416Z,89.23
2023-05-19T04:37:55.417Z,89.75
2023-05-19T04:38:55.422Z,89.71
2023-05-19T04:39:55.383Z,89.23
2023-05-19T04:40:55.374Z,89.92
2023-05-19T04:41:55.369Z,90.43
2023-05-19T04:42:55.361Z,89.71
2023-05-19T04:43:55.342Z,89.92
2023-05-19T04:44:55.333Z,90.26
2023-05-19T04:45:55.324Z,90.37
2023-05-19T04:46:55.359Z,90.37
2023-05-19T04:47:55.300Z,91.30
2023-05-19T04:48:55.284Z,89.86
2023-05-19T04:49:55.283Z,90.53
2023-05-19T04:50:55.260Z,91.16
2023-05-19T04:51:55.968Z,90.02
2023-05-19T04:52:55.266Z,90.84
2023-05-19T04:53:55.230Z,90.22
2023-05-19T04:54:55.229Z,90.64
2023-05-19T04:55:55.207Z,90.53
2023-05-19T04:56:55.203Z,88.89
2023-05-19T04:57:55.179Z,89.56
2023-05-19T04:58:55.197Z,89.46
2023-05-19T04:59:55.181Z,91.73
2023-05-19T05:00:55.232Z,90.19
2023-05-19T05:01:55.175Z,89.46
2023-05-19T05:02:55.214Z,88.90
2023-05-19T05:03:55.165Z,88.49
2023-05-19T05:04:55.126Z,87.87
2023-05-19T05:05:55.272Z,87.35
2023-05-19T05:06:55.093Z,86.74
2023-05-19T05:07:55.070Z,86.32
2023-05-19T05:08:55.068Z,85.87
2023-05-19T05:09:55.067Z,86.29
2023-05-19T05:10:55.072Z,85.97
2023-05-19T05:11:55.071Z,85.67
2023-05-19T05:12:55.028Z,85.73
2023-05-19T05:13:55.008Z,85.63
2023-05-19T05:14:54.996Z,85.63
2023-05-19T05:15:55.014Z,84.80
2023-05-19T05:16:55.020Z,84.97
2023-05-19T05:17:55.004Z,84.77
2023-05-19T05:18:55.005Z,84.14
2023-05-19T05:19:54.964Z,83.32
2023-05-19T05:20:54.943Z,83.63
2023-05-19T05:21:54.918Z,83.70
2023-05-19T05:22:54.933Z,83.70
2023-05-19T05:23:54.976Z,83.70
2023-05-19T05:24:54.902Z,82.87
2023-05-19T05:25:54.889Z,83.07
2023-05-19T05:26:54.865Z,83.14
2023-05-19T05:27:54.881Z,83.55
2023-05-19T05:28:54.855Z,82.73
2023-05-19T05:29:56.018Z,83.04
2023-05-19T05:30:54.820Z,82.42
2023-05-19T05:31:54.917Z,82.53
2023-05-19T05:32:54.922Z,82.48
2023-05-19T05:33:54.803Z,82.79
2023-05-19T05:34:54.780Z,82.69
2023-05-19T05:35:54.784Z,82.28
2023-05-19T05:36:54.774Z,81.35
2023-05-19T05:37:54.756Z,81.97
2023-05-19T05:38:54.736Z,80.19
2023-05-19T05:39:54.738Z,79.36
2023-05-19T05:40:54.743Z,79.47
2023-05-19T05:41:54.703Z,79.36
2023-05-19T05:42:54.712Z,79.26
2023-05-19T05:43:54.686Z,78.96
2023-05-19T05:44:54.672Z,80.49
2023-05-19T05:45:54.711Z,79.88
2023-05-19T05:46:54.665Z,79.12
2023-05-19T05:47:54.694Z,79.84
2023-05-19T05:48:54.629Z,79.12
2023-05-19T05:49:54.624Z,78.40
2023-05-19T05:50:54.605Z,78.92
2023-05-19T05:52:54.594Z,78.78
2023-05-19T05:53:54.583Z,78.57
2023-05-19T05:54:54.566Z,77.75
2023-05-19T05:55:54.553Z,79.29
2023-05-19T05:56:54.556Z,81.96
2023-05-19T05:57:54.527Z,78.94
2023-05-19T05:58:54.541Z,77.10
2023-05-19T05:59:54.525Z,76.07
2023-05-19T06:00:54.516Z,75.35
2023-05-19T06:01:54.573Z,74.49
2023-05-19T06:02:54.614Z,74.08
2023-05-19T06:03:54.467Z,74.80
2023-05-19T06:04:54.463Z,73.98
2023-05-19T06:05:54.536Z,73.68
2023-05-19T06:06:54.496Z,73.88
2023-05-19T06:07:54.438Z,74.29
2023-05-19T06:08:54.425Z,76.51
2023-05-19T06:09:54.423Z,75.49
2023-05-19T06:10:54.402Z,74.77
2023-05-19T06:11:54.413Z,74.87
2023-05-19T06:12:54.382Z,74.98
2023-05-19T06:13:54.358Z,73.30
2023-05-19T06:14:54.354Z,73.71
2023-05-19T06:15:54.405Z,74.02
2023-05-19T06:16:54.335Z,73.91
2023-05-19T06:17:54.359Z,72.68
2023-05-19T06:18:54.327Z,72.17
2023-05-19T06:19:54.301Z,72.27
2023-05-19T06:20:54.293Z,72.07
2023-05-19T06:21:54.274Z,72.89
2023-05-19T06:22:54.282Z,73.47
2023-05-19T06:23:54.294Z,72.55
2023-05-19T06:24:54.257Z,72.14
2023-05-19T06:25:54.228Z,72.65
2023-05-19T06:26:54.229Z,73.06
2023-05-19T06:27:54.220Z,73.47
2023-05-19T06:28:54.230Z,73.68
2023-05-19T06:29:54.191Z,73.23
2023-05-19T06:30:54.180Z,74.26
2023-05-19T06:31:54.246Z,73.64
2023-05-19T06:32:54.197Z,73.74
2023-05-19T06:33:54.177Z,73.23
2023-05-19T06:34:54.190Z,73.61
2023-05-19T06:35:54.131Z,73.91
2023-05-19T06:36:54.132Z,73.71
2023-05-19T06:37:54.102Z,73.71
2023-05-19T06:38:54.101Z,74.08
2023-05-19T06:39:54.080Z,72.24
2023-05-19T06:40:54.097Z,72.14
2023-05-19T06:41:54.070Z,72.86
2023-05-19T06:42:54.075Z,72.65
2023-05-19T06:43:54.036Z,72.92
2023-05-19T06:44:54.035Z,71.90
2023-05-19T06:45:54.035Z,72.11
2023-05-19T06:46:54.043Z,72.92
2023-05-19T06:47:54.079Z,71.80
2023-05-19T06:48:53.998Z,72.00
2023-05-19T06:49:53.966Z,72.38
2023-05-19T06:50:53.971Z,72.17
2023-05-19T06:51:53.963Z,73.30
2023-05-19T06:52:53.970Z,73.71
2023-05-19T06:53:53.950Z,73.30
2023-05-19T06:54:53.911Z,72.79
2023-05-19T06:55:58.831Z,70.92
2023-05-19T06:56:53.919Z,71.42
2023-05-19T06:57:53.883Z,71.33
2023-05-19T06:58:53.892Z,71.94
2023-05-19T06:59:53.876Z,71.73
2023-05-19T07:00:53.881Z,71.01
2023-05-19T07:01:53.892Z,71.19
2023-05-19T07:02:53.882Z,72.82
2023-05-19T07:03:53.987Z,73.44
2023-05-19T07:04:53.826Z,71.56
2023-05-19T07:05:53.837Z,71.56
2023-05-19T07:06:53.797Z,71.15
2023-05-19T07:07:53.787Z,70.72
2023-05-19T07:08:53.798Z,69.18
2023-05-19T07:09:53.759Z,68.88
2023-05-19T07:10:53.765Z,69.90
2023-05-19T07:11:53.767Z,67.96
2023-05-19T07:12:53.724Z,67.96
2023-05-19T07:13:53.745Z,68.47
2023-05-19T07:14:53.812Z,68.67
2023-05-19T07:15:53.753Z,68.57
2023-05-19T07:16:53.733Z,68.98
2023-05-19T07:17:53.693Z,69.49
2023-05-19T07:18:53.708Z,70.20
2023-05-19T07:19:53.651Z,70.07
2023-05-19T07:20:53.654Z,68.84
2023-05-19T07:21:53.635Z,68.84
2023-05-19T07:22:53.639Z,69.76
2023-05-19T07:23:53.623Z,69.96
2023-05-19T07:24:53.595Z,68.40
2023-05-19T07:25:53.594Z,67.90
2023-05-19T07:26:53.594Z,67.32
2023-05-19T07:27:53.570Z,68.23
2023-05-19T07:28:53.566Z,69.46
2023-05-19T07:29:53.559Z,68.54
2023-05-19T07:30:53.561Z,69.35
2023-05-19T07:31:54.519Z,68.91
2023-05-19T07:32:53.565Z,68.20
2023-05-19T07:33:54.609Z,68.30
2023-05-19T07:34:53.501Z,68.91
2023-05-19T07:35:53.499Z,69.22
2023-05-19T07:36:53.482Z,68.78
2023-05-19T07:37:53.467Z,66.94
2023-05-19T07:38:53.474Z,66.97
2023-05-19T07:39:53.447Z,67.90
2023-05-19T07:40:53.432Z,67.38
2023-05-19T07:41:53.428Z,66.16
2023-05-19T07:42:53.493Z,66.77
2023-05-19T07:43:53.404Z,66.88
2023-05-19T07:44:53.418Z,67.99
2023-05-19T07:45:53.441Z,67.08
2023-05-19T07:46:53.452Z,67.66
2023-05-19T07:47:53.413Z,67.86
2023-05-19T07:48:53.345Z,66.64
2023-05-19T07:49:53.334Z,66.44
2023-05-19T07:50:53.320Z,65.52
2023-05-19T07:51:53.331Z,65.19
2023-05-19T07:52:53.314Z,66.91
2023-05-19T07:53:53.293Z,68.04
2023-05-19T07:54:53.345Z,65.36
2023-05-19T07:55:53.273Z,66.68
2023-05-19T07:56:53.283Z,66.58
2023-05-19T07:57:53.245Z,67.77
2023-05-19T07:58:53.252Z,66.85
2023-05-19T07:59:53.233Z,65.73
2023-05-19T08:00:53.322Z,65.22
2023-05-19T08:01:53.201Z,65.12
2023-05-19T08:02:53.385Z,65.33
2023-05-19T08:03:53.265Z,64.11
2023-05-19T08:04:53.279Z,64.61
2023-05-19T08:05:53.161Z,64.38
2023-05-19T08:06:53.175Z,65.60
2023-05-19T08:07:53.149Z,65.39
2023-05-19T08:08:53.126Z,63.87
2023-05-19T08:09:53.114Z,64.58
2023-05-19T08:10:53.119Z,61.30
2023-05-19T08:11:53.099Z,61.68
2023-05-19T08:12:53.092Z,59.75
2023-05-19T08:13:53.078Z,58.33
2023-05-19T08:14:53.081Z,60.15
2023-05-19T08:15:53.116Z,61.44
2023-05-19T08:16:53.063Z,58.70
2023-05-19T08:17:53.121Z,57.48
2023-05-19T08:18:53.050Z,58.27
2023-05-19T08:19:53.001Z,58.17
2023-05-19T08:20:52.994Z,55.93
2023-05-19T08:21:52.979Z,56.13
2023-05-19T08:22:52.991Z,57.86
2023-05-19T08:23:52.964Z,57.46
2023-05-19T08:24:52.955Z,57.66
2023-05-19T08:25:52.939Z,56.34
2023-05-19T08:26:53.008Z,56.04
2023-05-19T08:27:52.922Z,57.25
2023-05-19T08:28:52.928Z,58.58
2023-05-19T08:29:52.895Z,56.24
2023-05-19T08:30:52.900Z,56.11
2023-05-19T08:31:53.126Z,57.43
2023-05-19T08:32:52.957Z,57.73
2023-05-19T08:33:52.882Z,53.80
2023-05-19T08:34:52.848Z,53.91
2023-05-19T08:35:52.904Z,54.72
2023-05-19T08:36:52.833Z,54.61
2023-05-19T08:37:52.845Z,55.12
2023-05-19T08:38:52.879Z,56.44
2023-05-19T08:39:52.805Z,56.24
2023-05-19T08:40:52.819Z,54.79
2023-05-19T08:41:52.802Z,54.79
2023-05-19T08:42:52.821Z,55.60
2023-05-19T08:43:52.774Z,54.79
2023-05-19T08:44:52.752Z,52.56
2023-05-19T08:45:52.733Z,52.56
2023-05-19T08:46:52.762Z,52.25
2023-05-19T08:47:52.736Z,53.67
2023-05-19T08:48:52.708Z,55.30
2023-05-19T08:49:52.689Z,55.17
2023-05-19T08:50:52.683Z,54.97
2023-05-19T08:51:52.663Z,53.32
2023-05-19T08:52:53.502Z,53.19
2023-05-19T08:53:52.639Z,51.57
2023-05-19T08:54:52.654Z,52.59
2023-05-19T08:55:52.637Z,53.60
2023-05-19T08:56:52.599Z,53.19
2023-05-19T08:57:52.592Z,53.09
2023-05-19T08:58:52.633Z,51.98
2023-05-19T08:59:52.591Z,52.59
2023-05-19T09:00:52.624Z,52.28
2023-05-19T09:01:52.555Z,50.86
2023-05-19T09:03:00.188Z,51.29
2023-05-19T09:03:52.577Z,51.19
2023-05-19T09:04:52.555Z,49.98
2023-05-19T09:05:52.619Z,49.67
2023-05-19T09:06:52.506Z,50.38
2023-05-19T09:07:52.481Z,51.80
2023-05-19T09:08:52.490Z,51.39
2023-05-19T09:09:52.491Z,51.29
2023-05-19T09:10:52.476Z,53.02
2023-05-19T09:11:52.468Z,52.48
2023-05-19T09:12:52.457Z,52.59
2023-05-19T09:13:52.445Z,51.78
2023-05-19T09:14:52.423Z,52.18
2023-05-19T09:15:52.407Z,52.08
2023-05-19T09:16:52.422Z,50.86
2023-05-19T09:17:52.416Z,50.96
2023-05-19T09:18:52.400Z,51.07
2023-05-19T09:19:52.358Z,52.69
2023-05-19T09:20:52.352Z,52.15
2023-05-19T09:21:52.339Z,51.35
2023-05-19T09:22:52.322Z,54.66
2023-05-19T09:23:52.331Z,50.51
2023-05-19T09:24:52.324Z,51.02
2023-05-19T09:25:52.352Z,50.09
2023-05-19T09:26:52.320Z,50.38
2023-05-19T09:27:52.276Z,48.77
2023-05-19T09:28:52.270Z,45.33
2023-05-19T09:29:52.252Z,47.25
2023-05-19T09:30:52.243Z,44.95
2023-05-19T09:31:52.291Z,46.87
2023-05-19T09:32:52.326Z,48.26
2023-05-19T09:33:52.207Z,46.75
2023-05-19T09:34:52.193Z,48.85
2023-05-19T09:35:52.200Z,47.53
2023-05-19T09:36:52.175Z,48.44
2023-05-19T09:37:52.266Z,48.44
2023-05-19T09:38:52.141Z,48.57
2023-05-19T09:39:52.171Z,49.86
2023-05-19T09:40:52.150Z,49.05
2023-05-19T09:41:52.120Z,48.95
2023-05-19T09:42:52.100Z,47.74
2023-05-19T09:43:52.126Z,47.94
2023-05-19T09:44:52.078Z,47.96
2023-05-19T09:45:52.116Z,48.91
2023-05-19T09:46:52.072Z,49.52
2023-05-19T09:47:52.111Z,49.24
2023-05-19T09:48:52.053Z,49.24
2023-05-19T09:49:52.045Z,49.24
2023-05-19T09:50:52.016Z,49.02
2023-05-19T09:51:52.024Z,49.22
2023-05-19T09:52:52.012Z,47.80
2023-05-19T09:53:52.024Z,47.80
2023-05-19T09:54:51.973Z,47.39
2023-05-19T09:55:51.974Z,47.82
2023-05-19T09:56:51.982Z,47.11
2023-05-19T09:57:51.950Z,47.22
2023-05-19T09:58:51.976Z,46.91
2023-05-19T09:59:51.937Z,48.13
2023-05-19T10:00:51.952Z,48.03
2023-05-19T10:01:52.010Z,49.52
2023-05-19T10:02:51.921Z,46.79
2023-05-19T10:03:51.950Z,47.09
2023-05-19T10:04:51.930Z,47.09
2023-05-19T10:05:51.896Z,46.99
2023-05-19T10:06:51.888Z,46.59
2023-05-19T10:07:51.831Z,45.87
2023-05-19T10:08:51.840Z,45.57
2023-05-19T10:09:51.827Z,46.10
2023-05-19T10:10:51.813Z,46.10
2023-05-19T10:11:51.816Z,47.72
2023-05-19T10:12:51.828Z,46.51
2023-05-19T10:13:51.769Z,46.61
2023-05-19T10:14:51.779Z,46.91
2023-05-19T10:15:58.373Z,48.23
2023-05-19T10:16:51.802Z,48.03
2023-05-19T10:17:51.802Z,50.03
2023-05-19T10:18:51.754Z,46.69
2023-05-19T10:19:51.714Z,46.99
2023-05-19T10:20:51.700Z,47.09
2023-05-19T10:21:51.688Z,46.48
2023-05-19T10:22:51.712Z,47.30
2023-05-19T10:23:51.694Z,45.90
2023-05-19T10:24:51.675Z,45.79
2023-05-19T10:25:51.676Z,45.79
2023-05-19T10:26:51.649Z,45.59
2023-05-19T10:27:51.621Z,46.41
2023-05-19T10:28:51.640Z,47.52
2023-05-19T10:29:51.632Z,47.92
2023-05-19T10:30:51.572Z,48.00
2023-05-19T10:31:51.642Z,48.00
2023-05-19T10:32:51.620Z,48.11
2023-05-19T10:33:51.551Z,48.00
2023-05-19T10:34:51.553Z,47.98
2023-05-19T10:35:51.547Z,47.67
2023-05-19T10:36:51.539Z,46.87
2023-05-19T10:37:51.528Z,48.36
2023-05-19T10:38:51.513Z,46.64
2023-05-19T10:39:51.490Z,47.96
2023-05-19T10:40:51.513Z,48.57
2023-05-19T10:41:51.484Z,47.96
2023-05-19T10:42:51.460Z,47.23
2023-05-19T10:43:51.448Z,46.92
2023-05-19T10:44:51.444Z,47.53
2023-05-19T10:45:51.442Z,46.12
2023-05-19T10:46:51.976Z,46.01
2023-05-19T10:47:51.454Z,46.62
2023-05-19T10:48:51.406Z,45.71
2023-05-19T10:49:51.383Z,44.40
2023-05-19T10:50:51.411Z,44.80
2023-05-19T10:51:51.376Z,42.58
2023-05-19T10:52:51.367Z,43.79
2023-05-19T10:53:51.362Z,43.89
2023-05-19T10:54:51.322Z,45.10
2023-05-19T10:55:51.330Z,43.46
2023-05-19T10:56:51.333Z,43.06
2023-05-19T10:57:51.307Z,42.43
2023-05-19T10:58:51.297Z,41.93
2023-05-19T10:59:51.298Z,40.13
2023-05-19T11:00:51.255Z,41.14
2023-05-19T11:01:51.296Z,41.75
2023-05-19T11:02:51.252Z,41.56
2023-05-19T11:03:51.264Z,42.27
2023-05-19T11:04:51.951Z,44.29
2023-05-19T11:05:51.234Z,45.26
2023-05-19T11:06:51.219Z,44.25
2023-05-19T11:07:51.188Z,45.97
2023-05-19T11:08:51.208Z,44.76
2023-05-19T11:09:51.165Z,44.46
2023-05-19T11:10:51.157Z,44.66
2023-05-19T11:11:51.160Z,43.67
2023-05-19T11:13:51.130Z,44.58
2023-05-19T11:14:51.121Z,46.52
2023-05-19T11:15:51.128Z,47.31
2023-05-19T11:16:51.174Z,47.91
2023-05-19T11:17:51.107Z,47.89
2023-05-19T11:18:51.090Z,46.98
2023-05-19T11:19:51.103Z,47.28
2023-05-19T11:20:51.088Z,45.65
2023-05-19T11:21:51.039Z,45.85
2023-05-19T11:22:51.042Z,47.77
2023-05-19T11:23:51.163Z,46.96
2023-05-19T11:24:51.020Z,46.66
2023-05-19T11:25:51.000Z,46.17
2023-05-19T11:26:51.007Z,46.17
2023-05-19T11:27:51.091Z,47.59
2023-05-19T11:28:50.973Z,47.28
2023-05-19T11:29:50.963Z,47.39
2023-05-19T11:30:50.948Z,47.20
2023-05-19T11:31:50.978Z,47.61
2023-05-19T11:32:51.070Z,46.92
2023-05-19T11:33:50.915Z,47.94
2023-05-19T11:34:50.922Z,48.72
2023-05-19T11:35:50.910Z,47.71
2023-05-19T11:36:50.889Z,49.22
2023-05-19T11:37:50.868Z,48.80
2023-05-19T11:38:50.877Z,49.38
2023-05-19T11:39:50.861Z,47.74
2023-05-19T11:40:50.841Z,48.05
2023-05-19T11:41:50.987Z,47.85
2023-05-19T11:42:50.815Z,47.44
2023-05-19T11:43:50.811Z,45.02
2023-05-19T11:44:50.800Z,46.23
2023-05-19T11:45:50.857Z,45.93
2023-05-19T11:46:50.938Z,45.95
2023-05-19T11:48:01.204Z,45.14
2023-05-19T11:48:50.753Z,47.47
2023-05-19T11:49:50.734Z,45.75
2023-05-19T11:50:50.725Z,45.83
2023-05-19T11:51:50.716Z,47.14
2023-05-19T11:52:50.727Z,44.94
2023-05-19T11:53:50.704Z,45.65
2023-05-19T11:54:50.684Z,45.57
2023-05-19T11:55:50.927Z,47.19
2023-05-19T11:56:50.682Z,45.87
2023-05-19T11:58:02.784Z,46.20
2023-05-19T11:58:50.733Z,47.11
2023-05-19T11:59:50.642Z,46.30
2023-05-19T12:00:50.626Z,46.30
2023-05-19T12:01:50.655Z,47.00
2023-05-19T12:02:50.653Z,47.00
2023-05-19T12:03:50.641Z,46.80
2023-05-19T12:04:50.704Z,47.00
2023-05-19T12:05:50.909Z,45.89
2023-05-19T12:06:50.580Z,46.70
2023-05-19T12:07:50.549Z,47.99
2023-05-19T12:08:50.543Z,49.81
2023-05-19T12:09:50.529Z,50.59
2023-05-19T12:10:50.568Z,49.56
2023-05-19T12:11:50.516Z,46.11
2023-05-19T12:12:50.500Z,47.02
2023-05-19T12:13:50.480Z,47.42
2023-05-19T12:14:50.465Z,45.70
2023-05-19T12:15:50.527Z,46.03
2023-05-19T12:16:50.546Z,50.16
2023-05-19T12:17:50.473Z,53.09
2023-05-19T12:18:50.457Z,49.74
2023-05-19T12:19:50.442Z,46.61
2023-05-19T12:20:50.396Z,46.31
2023-05-19T12:21:50.398Z,45.40
2023-05-19T12:22:50.446Z,45.70
2023-05-19T12:23:50.385Z,45.14
2023-05-19T12:24:50.380Z,45.25
2023-05-19T12:25:50.344Z,45.26
2023-05-19T12:26:50.389Z,45.69
2023-05-19T12:27:50.352Z,47.41
2023-05-19T12:28:50.310Z,47.00
2023-05-19T12:29:50.358Z,46.37
2023-05-19T12:30:50.365Z,49.41
2023-05-19T12:31:50.360Z,46.36
2023-05-19T12:32:50.367Z,47.77
2023-05-19T12:33:50.257Z,47.54
2023-05-19T12:34:50.271Z,46.03
2023-05-19T12:35:50.232Z,47.24
2023-05-19T12:36:50.221Z,48.65
2023-05-19T12:37:50.215Z,48.05
2023-05-19T12:38:50.193Z,46.94
2023-05-19T12:39:50.212Z,47.85
2023-05-19T12:40:50.217Z,45.85
2023-05-19T12:41:50.202Z,47.67
2023-05-19T12:42:50.151Z,47.28
2023-05-19T12:43:50.240Z,48.19
2023-05-19T12:44:50.138Z,48.19
2023-05-19T12:45:50.128Z,49.21
2023-05-19T12:46:50.130Z,50.62
2023-05-19T12:47:50.167Z,49.99
2023-05-19T12:48:50.095Z,47.56
2023-05-19T12:49:50.093Z,48.15
2023-05-19T12:50:50.068Z,48.35
2023-05-19T12:51:50.109Z,48.73
2023-05-19T12:52:50.070Z,45.61
2023-05-19T12:53:50.060Z,45.22
2023-05-19T12:54:50.120Z,45.65